Hovedside
METAR-TAF:

METAR-TAF

Lufthavner :

Halmstad, Sverige

Halmstad lufthavn

breddegrad: 56-41N, lengdegrad: 012-50E, høyde over havet: 30 m

Gjeldene værobservasjon

Denne rapporten ble laget for 31 minutter siden, klokken 18:50 UTC
Vind 3 kt fra Sør-sørvest
Temperatur 20°C
Luftfuktighet 60%
Trykk 1020 hPa
Sikt 10 km eller mer

METAR: ESMT 271850Z AUTO 21003KT 9999 NCD 20/12 Q1020

Tid: 21:21 (19:21 UTC)


TAF: fraværende

Værobservasjoner og værvarsel for over 4000 flyplasser (METAR- og TAF-rapporter).

Tilgjengelige stasjoner er representert av de røde og gule prikkene på kartet.

Hold musepekeren over prikken for å se navnet på stasjonen.

Klikk så for å se værobservasjoner og -varsler.

For å forandre kartet kan du klikke på den grønne knappen med svart kryss for å zoome inn, på den grønne knappen med strek for å zoome ut, eller på de grønne pilene for å se tilstøtende kart.


METAR-TAF: